createdAt,value
2018-05-17T00:01:33.029Z,77.34
2018-05-17T00:04:00.451Z,77.31
2018-05-17T00:06:27.866Z,77.66
2018-05-17T00:08:55.290Z,77.44
2018-05-17T00:11:22.720Z,77.70
2018-05-17T00:13:50.121Z,77.80
2018-05-17T00:16:17.527Z,77.70
2018-05-17T00:18:44.947Z,77.25
2018-05-17T00:21:12.356Z,77.11
2018-05-17T00:23:39.892Z,77.36
2018-05-17T00:26:07.312Z,78.38
2018-05-17T00:28:34.719Z,78.95
2018-05-17T00:31:02.147Z,79.15
2018-05-17T00:33:29.556Z,79.00
2018-05-17T00:35:56.967Z,78.27
2018-05-17T00:38:24.385Z,78.78
2018-05-17T00:40:51.788Z,78.49
2018-05-17T00:43:19.212Z,78.04
2018-05-17T00:45:46.616Z,78.58
2018-05-17T00:48:14.028Z,78.46
2018-05-17T00:50:41.448Z,78.05
2018-05-17T00:53:20.753Z,78.19
2018-05-17T00:55:48.180Z,77.84
2018-05-17T00:58:15.587Z,77.83
2018-05-17T01:00:42.996Z,77.72
2018-05-17T01:03:10.742Z,77.86
2018-05-17T01:05:38.149Z,77.45
2018-05-17T01:08:05.564Z,76.85
2018-05-17T01:10:32.983Z,77.21
2018-05-17T01:13:00.389Z,77.18
2018-05-17T01:15:27.816Z,77.11
2018-05-17T01:17:55.237Z,76.67
2018-05-17T01:20:22.665Z,76.93
2018-05-17T01:22:50.080Z,76.76
2018-05-17T01:25:17.508Z,76.60
2018-05-17T01:27:44.922Z,76.63
2018-05-17T01:30:12.349Z,76.39
2018-05-17T01:32:39.760Z,77.59
2018-05-17T01:35:07.558Z,78.08
2018-05-17T01:37:46.648Z,78.34
2018-05-17T01:40:14.076Z,78.89
2018-05-17T01:42:41.488Z,78.90
2018-05-17T01:45:08.902Z,79.25
2018-05-17T01:47:36.353Z,79.10
2018-05-17T01:50:03.764Z,78.74
2018-05-17T01:52:31.188Z,78.57
2018-05-17T01:54:58.591Z,78.80
2018-05-17T01:57:26.000Z,78.06
2018-05-17T01:59:53.432Z,78.23
2018-05-17T02:02:20.831Z,78.28
2018-05-17T02:04:48.237Z,77.84
2018-05-17T02:07:15.671Z,77.88
2018-05-17T02:09:43.072Z,78.02
2018-05-17T02:12:10.480Z,78.11
2018-05-17T02:14:37.903Z,78.13
2018-05-17T02:17:05.309Z,77.70
2018-05-17T02:19:32.711Z,77.13
2018-05-17T02:22:00.137Z,76.86
2018-05-17T02:24:27.543Z,76.97
2018-05-17T02:26:55.281Z,77.10
2018-05-17T02:29:22.687Z,77.15
2018-05-17T02:31:50.094Z,77.28
2018-05-17T02:34:17.511Z,76.72
2018-05-17T02:36:44.932Z,76.85
2018-05-17T02:39:12.333Z,77.24
2018-05-17T02:41:39.752Z,77.02
2018-05-17T02:44:07.317Z,77.33
2018-05-17T02:46:35.139Z,77.65
2018-05-17T02:49:02.554Z,77.96
2018-05-17T02:51:30.267Z,77.70
2018-05-17T02:53:57.672Z,77.77
2018-05-17T02:56:25.089Z,77.64
2018-05-17T02:58:52.522Z,77.06
2018-05-17T03:01:19.933Z,77.44
2018-05-17T03:03:47.341Z,77.52
2018-05-17T03:06:14.915Z,77.51
2018-05-17T03:08:42.328Z,77.87
2018-05-17T03:11:09.739Z,77.80
2018-05-17T03:13:37.161Z,77.72
2018-05-17T03:16:04.569Z,77.37
2018-05-17T03:18:31.997Z,77.32
2018-05-17T03:20:59.405Z,76.80
2018-05-17T03:23:26.813Z,77.05
2018-05-17T03:25:54.241Z,76.44
2018-05-17T03:28:21.651Z,76.94
2018-05-17T03:30:49.069Z,76.78
2018-05-17T03:33:16.620Z,77.05
2018-05-17T03:35:44.036Z,76.83
2018-05-17T03:38:11.440Z,76.49
2018-05-17T03:40:38.859Z,76.07
2018-05-17T03:43:06.280Z,75.81
2018-05-17T03:45:33.677Z,75.83
2018-05-17T03:48:01.092Z,76.04
2018-05-17T03:50:28.508Z,75.60
2018-05-17T03:52:55.912Z,74.61
2018-05-17T03:55:23.332Z,74.46
2018-05-17T03:57:50.737Z,75.13
2018-05-17T04:00:18.156Z,75.33
2018-05-17T04:02:57.756Z,75.19
2018-05-17T04:05:36.883Z,75.40
2018-05-17T04:08:04.301Z,75.42
2018-05-17T04:10:31.704Z,75.27
2018-05-17T04:12:59.107Z,75.19
2018-05-17T04:15:26.531Z,74.77
2018-05-17T04:17:54.242Z,74.74
2018-05-17T04:20:21.659Z,74.55
2018-05-17T04:22:49.059Z,74.42
2018-05-17T04:25:16.624Z,73.81
2018-05-17T04:27:44.028Z,74.15
2018-05-17T04:30:11.433Z,73.85
2018-05-17T04:32:38.860Z,73.38
2018-05-17T04:35:06.267Z,73.18
2018-05-17T04:37:33.673Z,73.39
2018-05-17T04:40:01.098Z,73.12
2018-05-17T04:42:28.523Z,73.21
2018-05-17T04:44:55.936Z,73.10
2018-05-17T04:47:23.356Z,73.45
2018-05-17T04:49:50.759Z,72.50
2018-05-17T04:52:18.513Z,72.67
2018-05-17T04:54:45.965Z,72.40
2018-05-17T04:57:13.324Z,73.01
2018-05-17T04:59:40.771Z,72.89
2018-05-17T05:02:08.202Z,72.03
2018-05-17T05:04:35.595Z,72.35
2018-05-17T05:07:03.020Z,72.13
2018-05-17T05:09:30.625Z,71.63
2018-05-17T05:11:58.003Z,71.51
2018-05-17T05:14:25.404Z,71.42
2018-05-17T05:16:53.105Z,71.48
2018-05-17T05:19:20.507Z,72.37
2018-05-17T05:21:47.913Z,72.31
2018-05-17T05:24:15.345Z,72.36
2018-05-17T05:26:42.781Z,72.17
2018-05-17T05:31:37.315Z,72.14
2018-05-17T05:34:04.715Z,72.45
2018-05-17T05:36:32.131Z,72.49
2018-05-17T05:38:59.554Z,72.58
2018-05-17T05:41:26.971Z,72.24
2018-05-17T05:43:54.387Z,72.51
2018-05-17T05:46:21.819Z,73.10
2018-05-17T05:48:49.255Z,72.56
2018-05-17T05:51:16.662Z,72.47
2018-05-17T05:53:44.075Z,72.27
2018-05-17T05:56:11.497Z,71.74
2018-05-17T05:58:38.906Z,72.01
2018-05-17T06:01:06.315Z,72.08
2018-05-17T06:03:33.736Z,70.88
2018-05-17T06:06:01.151Z,70.80
2018-05-17T06:08:28.662Z,70.29
2018-05-17T06:10:55.975Z,70.00
2018-05-17T06:13:23.404Z,69.65
2018-05-17T06:15:50.821Z,69.74
2018-05-17T06:18:18.240Z,69.20
2018-05-17T06:20:45.680Z,69.50
2018-05-17T06:23:13.085Z,69.24
2018-05-17T06:25:40.510Z,69.01
2018-05-17T06:28:07.916Z,68.92
2018-05-17T06:30:35.675Z,67.30
2018-05-17T06:33:03.095Z,67.94
2018-05-17T06:35:30.512Z,67.92
2018-05-17T06:37:57.928Z,68.56
2018-05-17T06:40:25.344Z,68.56
2018-05-17T06:42:52.755Z,67.49
2018-05-17T06:45:20.181Z,67.68
2018-05-17T06:47:47.595Z,68.37
2018-05-17T06:50:15.014Z,67.96
2018-05-17T06:52:42.416Z,67.39
2018-05-17T06:55:09.825Z,67.26
2018-05-17T06:57:37.257Z,67.14
2018-05-17T07:00:05.170Z,67.74
2018-05-17T07:02:32.572Z,65.99
2018-05-17T07:05:00.001Z,64.68
2018-05-17T07:07:27.412Z,66.67
2018-05-17T07:09:54.842Z,65.40
2018-05-17T07:12:22.271Z,65.31
2018-05-17T07:14:51.439Z,64.45
2018-05-17T07:17:18.839Z,63.91
2018-05-17T07:19:46.265Z,63.09
2018-05-17T07:22:13.739Z,63.27
2018-05-17T07:24:41.155Z,63.37
2018-05-17T07:27:08.576Z,62.47
2018-05-17T07:29:35.994Z,62.50
2018-05-17T07:32:03.484Z,58.42
2018-05-17T07:34:30.912Z,57.77
2018-05-17T07:36:58.364Z,57.02
2018-05-17T07:39:25.765Z,57.91
2018-05-17T07:41:53.196Z,57.82
2018-05-17T07:44:20.596Z,58.47
2018-05-17T07:46:48.054Z,57.81
2018-05-17T07:49:16.052Z,57.46
2018-05-17T07:51:43.505Z,57.66
2018-05-17T07:54:10.981Z,58.01
2018-05-17T07:56:38.400Z,57.23
2018-05-17T07:59:05.828Z,57.32
2018-05-17T08:01:33.243Z,57.12
2018-05-17T08:04:00.675Z,54.25
2018-05-17T08:06:28.097Z,52.96
2018-05-17T08:08:55.532Z,54.19
2018-05-17T08:11:22.948Z,54.11
2018-05-17T08:13:50.356Z,51.78
2018-05-17T08:16:17.789Z,51.27
2018-05-17T08:18:45.196Z,50.75
2018-05-17T08:21:12.622Z,49.95
2018-05-17T08:23:40.102Z,51.07
2018-05-17T08:26:07.573Z,51.58
2018-05-17T08:28:35.020Z,51.95
2018-05-17T08:31:02.432Z,50.33
2018-05-17T08:33:29.991Z,50.73
2018-05-17T08:35:58.336Z,51.62
2018-05-17T08:38:25.775Z,51.89
2018-05-17T08:40:53.188Z,51.95
2018-05-17T08:43:20.615Z,52.35
2018-05-17T08:45:48.045Z,51.35
2018-05-17T08:48:15.472Z,51.09
2018-05-17T08:50:42.905Z,51.25
2018-05-17T08:53:10.308Z,51.04
2018-05-17T08:55:37.732Z,51.10
2018-05-17T08:58:05.200Z,51.14
2018-05-17T09:00:32.657Z,50.12
2018-05-17T09:03:00.068Z,49.24
2018-05-17T09:05:27.468Z,50.25
2018-05-17T09:07:54.966Z,49.67
2018-05-17T09:10:22.304Z,48.19
2018-05-17T09:12:49.748Z,49.17
2018-05-17T09:15:17.160Z,48.28
2018-05-17T09:17:44.583Z,47.94
2018-05-17T09:20:12.165Z,49.15
2018-05-17T09:22:39.467Z,49.25
2018-05-17T09:25:06.928Z,48.93
2018-05-17T09:27:34.392Z,48.00
2018-05-17T09:30:01.836Z,46.25
2018-05-17T09:32:32.137Z,46.65
2018-05-17T09:34:59.560Z,46.06
2018-05-17T09:37:26.976Z,45.86
2018-05-17T09:39:54.408Z,45.82
2018-05-17T09:42:21.844Z,47.36
2018-05-17T09:44:49.252Z,47.05
2018-05-17T09:47:16.739Z,46.44
2018-05-17T09:49:44.168Z,43.91
2018-05-17T09:52:11.605Z,45.21
2018-05-17T09:54:39.004Z,46.39
2018-05-17T09:57:06.440Z,46.31
2018-05-17T09:59:33.876Z,46.66
2018-05-17T10:02:01.284Z,47.45
2018-05-17T10:04:28.712Z,48.52
2018-05-17T10:06:56.151Z,47.79
2018-05-17T10:09:23.556Z,48.71
2018-05-17T10:11:50.983Z,47.47
2018-05-17T10:14:18.389Z,50.10
2018-05-17T10:16:45.805Z,50.37
2018-05-17T10:19:13.235Z,51.06
2018-05-17T10:21:40.657Z,50.45
2018-05-17T10:24:08.084Z,50.71
2018-05-17T10:26:36.256Z,51.12
2018-05-17T10:29:03.684Z,51.62
2018-05-17T10:31:31.093Z,52.29
2018-05-17T10:33:58.594Z,50.82
2018-05-17T10:36:26.000Z,50.42
2018-05-17T10:38:53.556Z,50.61
2018-05-17T10:41:20.960Z,51.57
2018-05-17T10:43:48.366Z,50.87
2018-05-17T10:46:15.797Z,52.14
2018-05-17T10:48:43.240Z,53.04
2018-05-17T10:51:10.708Z,52.91
2018-05-17T10:53:38.114Z,52.36
2018-05-17T10:56:05.524Z,50.90
2018-05-17T10:58:32.938Z,51.84
2018-05-17T11:01:00.350Z,49.87
2018-05-17T11:03:27.779Z,52.28
2018-05-17T11:05:55.296Z,51.82
2018-05-17T11:08:22.754Z,52.29
2018-05-17T11:10:50.252Z,53.03
2018-05-17T11:13:17.620Z,51.68
2018-05-17T11:15:45.033Z,51.25
2018-05-17T11:18:12.539Z,52.59
2018-05-17T11:20:39.957Z,52.27
2018-05-17T11:23:07.380Z,51.16
2018-05-17T11:25:34.809Z,50.85
2018-05-17T11:28:02.222Z,50.81
2018-05-17T11:30:29.664Z,50.85
2018-05-17T11:32:57.116Z,50.69
2018-05-17T11:35:24.500Z,50.52
2018-05-17T11:37:51.933Z,51.77
2018-05-17T11:40:19.356Z,51.13
2018-05-17T11:42:46.784Z,50.92
2018-05-17T11:45:20.553Z,50.67
2018-05-17T11:47:47.990Z,50.25
2018-05-17T11:50:15.396Z,50.96
2018-05-17T11:52:42.811Z,51.37
2018-05-17T11:55:10.240Z,51.44
2018-05-17T11:57:37.650Z,52.18
2018-05-17T12:00:05.062Z,51.74
2018-05-17T12:02:32.496Z,51.36
2018-05-17T12:04:59.899Z,50.91
2018-05-17T12:07:27.356Z,50.83
2018-05-17T12:09:54.735Z,50.44
2018-05-17T12:12:22.159Z,50.17
2018-05-17T12:14:49.560Z,51.34
2018-05-17T12:17:16.995Z,51.91
2018-05-17T12:19:44.404Z,52.34
2018-05-17T12:22:11.824Z,52.15
2018-05-17T12:24:39.268Z,53.00
2018-05-17T12:27:06.672Z,52.55
2018-05-17T12:29:34.084Z,51.58
2018-05-17T12:32:01.607Z,49.81
2018-05-17T12:34:33.867Z,49.66
2018-05-17T12:37:01.334Z,49.78
2018-05-17T12:39:28.718Z,49.41
2018-05-17T12:41:56.124Z,49.59
2018-05-17T12:44:24.060Z,49.57
2018-05-17T12:46:51.468Z,49.56
2018-05-17T12:49:18.867Z,52.19
2018-05-17T12:51:46.306Z,51.85
2018-05-17T12:54:13.721Z,50.38
2018-05-17T12:56:41.190Z,49.65
2018-05-17T12:59:08.821Z,50.27
2018-05-17T13:01:37.387Z,50.21
2018-05-17T13:04:04.910Z,50.26
2018-05-17T13:06:32.783Z,50.21
2018-05-17T13:09:00.207Z,51.64
2018-05-17T13:11:27.615Z,51.34
2018-05-17T13:13:55.059Z,51.09
2018-05-17T13:16:22.461Z,50.50
2018-05-17T13:18:49.879Z,51.12
2018-05-17T13:21:17.312Z,50.54
2018-05-17T13:23:44.739Z,51.52
2018-05-17T13:26:12.205Z,51.17
2018-05-17T13:28:39.776Z,50.23
2018-05-17T13:31:07.250Z,47.58
2018-05-17T13:33:34.647Z,48.17
2018-05-17T13:36:02.075Z,48.90
2018-05-17T13:38:29.503Z,49.38
2018-05-17T13:40:56.919Z,49.01
2018-05-17T13:43:24.327Z,49.27
2018-05-17T13:45:51.760Z,48.58
2018-05-17T13:48:19.173Z,49.06
2018-05-17T13:50:46.737Z,49.12
2018-05-17T13:53:14.201Z,47.77
2018-05-17T13:55:41.619Z,48.53
2018-05-17T13:58:09.036Z,48.87
2018-05-17T14:00:36.440Z,49.04
2018-05-17T14:03:03.895Z,49.25
2018-05-17T14:05:31.387Z,50.64
2018-05-17T14:07:58.712Z,49.39
2018-05-17T14:10:26.365Z,49.23
2018-05-17T14:12:53.764Z,49.82
2018-05-17T14:15:21.296Z,48.72
2018-05-17T14:17:48.592Z,48.45
2018-05-17T14:20:16.004Z,48.99
2018-05-17T14:22:43.611Z,48.97
2018-05-17T14:25:11.028Z,49.01
2018-05-17T14:27:38.440Z,49.65
2018-05-17T14:30:05.860Z,49.84
2018-05-17T14:32:33.280Z,49.53
2018-05-17T14:35:00.704Z,49.23
2018-05-17T14:37:28.123Z,49.50
2018-05-17T14:39:55.546Z,49.04
2018-05-17T14:42:22.968Z,49.82
2018-05-17T14:44:50.375Z,49.71
2018-05-17T14:47:17.820Z,50.63
2018-05-17T14:49:45.561Z,50.27
2018-05-17T14:52:12.968Z,50.33
2018-05-17T14:54:40.381Z,50.02
2018-05-17T14:57:07.949Z,50.39
2018-05-17T14:59:35.424Z,50.48
2018-05-17T15:02:02.840Z,50.97
2018-05-17T15:04:30.269Z,50.72
2018-05-17T15:06:57.704Z,50.48
2018-05-17T15:09:25.110Z,49.64
2018-05-17T15:11:52.538Z,50.07
2018-05-17T15:14:19.960Z,50.04
2018-05-17T15:16:47.377Z,49.90
2018-05-17T15:19:14.794Z,49.86
2018-05-17T15:21:42.360Z,50.67
2018-05-17T15:24:09.764Z,50.69
2018-05-17T15:26:37.173Z,50.45
2018-05-17T15:29:04.599Z,52.02
2018-05-17T15:31:32.017Z,52.32
2018-05-17T15:33:59.472Z,51.99
2018-05-17T15:36:26.866Z,52.18
2018-05-17T15:38:54.287Z,51.27
2018-05-17T15:41:21.700Z,51.84
2018-05-17T15:43:49.109Z,53.23
2018-05-17T15:46:16.528Z,52.40
2018-05-17T15:48:43.948Z,53.04
2018-05-17T15:51:11.371Z,52.95
2018-05-17T15:53:38.877Z,54.27
2018-05-17T15:56:06.204Z,55.48
2018-05-17T15:58:33.615Z,55.72
2018-05-17T16:01:01.040Z,55.18
2018-05-17T16:03:28.471Z,56.21
2018-05-17T16:05:55.884Z,56.85
2018-05-17T16:08:23.295Z,56.36
2018-05-17T16:10:50.718Z,57.49
2018-05-17T16:13:18.446Z,57.03
2018-05-17T16:15:45.992Z,57.19
2018-05-17T16:18:13.256Z,57.32
2018-05-17T16:20:40.693Z,57.12
2018-05-17T16:23:08.110Z,57.75
2018-05-17T16:25:35.520Z,56.81
2018-05-17T16:28:02.939Z,57.10
2018-05-17T16:30:30.370Z,58.04
2018-05-17T16:32:57.771Z,58.65
2018-05-17T16:35:25.542Z,58.58
2018-05-17T16:37:52.944Z,58.78
2018-05-17T16:40:20.349Z,59.04
2018-05-17T16:42:47.935Z,59.30
2018-05-17T16:45:15.263Z,59.03
2018-05-17T16:47:42.749Z,59.92
2018-05-17T16:50:10.316Z,60.77
2018-05-17T16:52:37.745Z,61.22
2018-05-17T16:55:05.164Z,61.08
2018-05-17T16:57:32.916Z,62.38
2018-05-17T17:00:00.320Z,62.13
2018-05-17T17:02:29.917Z,62.42
2018-05-17T17:04:57.686Z,62.17
2018-05-17T17:07:25.100Z,61.44
2018-05-17T17:09:52.581Z,61.25
2018-05-17T17:12:20.470Z,61.39
2018-05-17T17:14:47.882Z,61.44
2018-05-17T17:17:15.316Z,62.14
2018-05-17T17:19:43.072Z,62.27
2018-05-17T17:22:10.531Z,62.48
2018-05-17T17:24:37.967Z,63.01
2018-05-17T17:27:05.394Z,62.74
2018-05-17T17:29:32.815Z,62.70
2018-05-17T17:32:00.236Z,64.11
2018-05-17T17:34:27.644Z,64.79
2018-05-17T17:36:55.059Z,63.87
2018-05-17T17:39:22.839Z,64.08
2018-05-17T17:41:50.327Z,64.70
2018-05-17T17:44:17.738Z,63.88
2018-05-17T17:46:45.183Z,63.31
2018-05-17T17:49:12.589Z,63.49
2018-05-17T17:51:39.998Z,64.32
2018-05-17T17:54:07.761Z,64.98
2018-05-17T17:56:35.631Z,64.66
2018-05-17T17:59:03.040Z,65.88
2018-05-17T18:01:30.614Z,65.16
2018-05-17T18:03:58.036Z,66.33
2018-05-17T18:06:25.452Z,65.42
2018-05-17T18:08:52.872Z,65.22
2018-05-17T18:11:20.285Z,65.22
2018-05-17T18:13:47.704Z,64.77
2018-05-17T18:16:15.130Z,65.45
2018-05-17T18:18:43.368Z,65.17
2018-05-17T18:21:10.772Z,65.54
2018-05-17T18:23:38.196Z,65.77
2018-05-17T18:26:05.641Z,65.63
2018-05-17T18:28:33.040Z,65.54
2018-05-17T18:31:00.837Z,65.97
2018-05-17T18:33:28.245Z,65.99
2018-05-17T18:35:55.651Z,66.97
2018-05-17T18:38:23.093Z,67.94
2018-05-17T18:40:50.523Z,66.95
2018-05-17T18:43:17.952Z,67.17
2018-05-17T18:45:45.356Z,67.01
2018-05-17T18:48:12.784Z,67.99
2018-05-17T18:50:40.197Z,67.93
2018-05-17T18:53:07.620Z,67.85
2018-05-17T18:55:35.031Z,68.40
2018-05-17T18:58:02.435Z,68.38
2018-05-17T19:00:29.866Z,68.16
2018-05-17T19:02:57.289Z,68.22
2018-05-17T19:05:24.692Z,68.04
2018-05-17T19:07:52.124Z,67.69
2018-05-17T19:10:19.551Z,67.35
2018-05-17T19:12:46.965Z,67.94
2018-05-17T19:15:14.524Z,68.77
2018-05-17T19:17:41.943Z,68.54
2018-05-17T19:20:09.355Z,68.56
2018-05-17T19:22:36.797Z,68.08
2018-05-17T19:25:04.206Z,68.00
2018-05-17T19:27:31.924Z,68.28
2018-05-17T19:29:59.338Z,68.30
2018-05-17T19:32:26.749Z,67.91
2018-05-17T19:34:54.171Z,67.95
2018-05-17T19:37:21.630Z,68.23
2018-05-17T19:39:49.024Z,67.85
2018-05-17T19:42:16.438Z,67.66
2018-05-17T19:44:43.874Z,67.88
2018-05-17T19:47:11.301Z,68.12
2018-05-17T19:49:38.716Z,68.55
2018-05-17T19:52:06.138Z,69.49
2018-05-17T19:54:33.548Z,69.02
2018-05-17T19:57:00.974Z,68.55
2018-05-17T19:59:28.396Z,68.18
2018-05-17T20:01:55.840Z,67.96
2018-05-17T20:04:23.269Z,68.53
2018-05-17T20:06:50.711Z,68.74
2018-05-17T20:09:18.124Z,68.81
2018-05-17T20:11:45.763Z,68.94
2018-05-17T20:14:13.180Z,69.08
2018-05-17T20:16:40.589Z,69.28
2018-05-17T20:19:08.380Z,68.93
2018-05-17T20:21:35.783Z,68.74
2018-05-17T20:24:03.198Z,68.97
2018-05-17T20:26:30.633Z,68.99
2018-05-17T20:28:58.048Z,69.25
2018-05-17T20:31:25.457Z,69.67
2018-05-17T20:33:52.908Z,69.47
2018-05-17T20:36:21.694Z,69.68
2018-05-17T20:38:49.114Z,69.84
2018-05-17T20:41:16.584Z,69.98
2018-05-17T20:43:43.995Z,69.78
2018-05-17T20:46:11.412Z,69.90
2018-05-17T20:48:38.840Z,69.63
2018-05-17T20:51:06.268Z,69.47
2018-05-17T20:53:33.695Z,69.48
2018-05-17T20:56:01.122Z,69.65
2018-05-17T20:58:28.556Z,69.97
2018-05-17T21:00:56.360Z,69.92
2018-05-17T21:03:23.769Z,69.94
2018-05-17T21:05:51.233Z,69.69
2018-05-17T21:08:18.639Z,69.58
2018-05-17T21:10:46.048Z,69.68
2018-05-17T21:13:13.484Z,69.59
2018-05-17T21:15:50.091Z,69.07
2018-05-17T21:18:17.532Z,69.39
2018-05-17T21:20:46.064Z,69.77
2018-05-17T21:23:13.846Z,70.05
2018-05-17T21:25:41.275Z,69.89
2018-05-17T21:28:08.688Z,69.81
2018-05-17T21:30:36.462Z,70.23
2018-05-17T21:33:03.874Z,69.78
2018-05-17T21:35:31.284Z,69.89
2018-05-17T21:37:58.715Z,70.14
2018-05-17T21:40:26.121Z,70.44
2018-05-17T21:42:53.539Z,70.33
2018-05-17T21:45:20.949Z,71.12
2018-05-17T21:47:48.356Z,70.92
2018-05-17T21:50:15.815Z,71.00
2018-05-17T21:52:43.236Z,70.87
2018-05-17T21:55:10.956Z,70.79
2018-05-17T21:57:38.366Z,70.71
2018-05-17T22:00:05.776Z,70.66
2018-05-17T22:02:33.196Z,70.54
2018-05-17T22:05:00.644Z,70.71
2018-05-17T22:07:28.132Z,70.74
2018-05-17T22:09:55.473Z,70.74
2018-05-17T22:12:23.152Z,70.80
2018-05-17T22:14:50.566Z,70.92
2018-05-17T22:17:17.976Z,70.95
2018-05-17T22:19:45.767Z,71.36
2018-05-17T22:22:13.172Z,71.65
2018-05-17T22:24:40.711Z,71.18
2018-05-17T22:27:08.321Z,71.27
2018-05-17T22:29:35.753Z,71.61
2018-05-17T22:32:03.170Z,71.52
2018-05-17T22:34:30.656Z,71.41
2018-05-17T22:36:58.094Z,71.19
2018-05-17T22:39:25.860Z,71.10
2018-05-17T22:41:53.293Z,71.25
2018-05-17T22:44:20.716Z,70.77
2018-05-17T22:46:48.157Z,70.62
2018-05-17T22:49:15.578Z,70.86
2018-05-17T22:51:43.102Z,70.77
2018-05-17T22:54:10.443Z,70.69
2018-05-17T22:56:50.021Z,70.68
2018-05-17T22:59:17.428Z,71.37
2018-05-17T23:01:44.872Z,71.14
2018-05-17T23:04:12.302Z,70.95
2018-05-17T23:06:39.737Z,70.82
2018-05-17T23:09:07.176Z,71.26
2018-05-17T23:11:34.592Z,70.74
2018-05-17T23:14:02.017Z,71.00
2018-05-17T23:16:29.479Z,70.83
2018-05-17T23:18:56.897Z,70.96
2018-05-17T23:21:24.341Z,71.10
2018-05-17T23:23:51.756Z,71.09
2018-05-17T23:26:19.180Z,71.06
2018-05-17T23:28:46.627Z,70.96
2018-05-17T23:31:14.042Z,71.05
2018-05-17T23:33:41.520Z,71.00
2018-05-17T23:36:08.974Z,71.01
2018-05-17T23:38:36.391Z,71.00
2018-05-17T23:44:06.638Z,70.99
2018-05-17T23:46:34.905Z,71.31
2018-05-17T23:49:02.349Z,71.60
2018-05-17T23:51:29.773Z,71.75
2018-05-17T23:53:57.227Z,71.60
2018-05-17T23:56:24.637Z,71.85
2018-05-17T23:58:52.048Z,72.03
